sensor_id;sensor_type;location;lat;lon;timestamp;pressure;altitude;pressure_sealevel;temperature;humidity
39739;BME280;25422;48.286;8.484;2023-02-17T00:02:01;94906.19;;;6.12;100.00
39739;BME280;25422;48.286;8.484;2023-02-17T00:04:31;94913.72;;;6.15;100.00
39739;BME280;25422;48.286;8.484;2023-02-17T00:06:57;94914.81;;;6.13;100.00
39739;BME280;25422;48.286;8.484;2023-02-17T00:09:23;94922.25;;;6.17;100.00
39739;BME280;25422;48.286;8.484;2023-02-17T00:11:49;94921.66;;;6.14;100.00
39739;BME280;25422;48.286;8.484;2023-02-17T00:14:15;94930.38;;;6.13;100.00
39739;BME280;25422;48.286;8.484;2023-02-17T00:16:40;94928.84;;;6.10;100.00
39739;BME280;25422;48.286;8.484;2023-02-17T00:19:06;94931.66;;;6.18;100.00
39739;BME280;25422;48.286;8.484;2023-02-17T00:21:52;94929.66;;;6.22;100.00
39739;BME280;25422;48.286;8.484;2023-02-17T00:24:18;94924.19;;;6.25;100.00
39739;BME280;25422;48.286;8.484;2023-02-17T00:26:43;94919.06;;;6.14;100.00
39739;BME280;25422;48.286;8.484;2023-02-17T00:29:09;94917.97;;;6.16;100.00
39739;BME280;25422;48.286;8.484;2023-02-17T00:31:34;94923.50;;;6.23;100.00
39739;BME280;25422;48.286;8.484;2023-02-17T00:34:00;94928.38;;;6.16;100.00
39739;BME280;25422;48.286;8.484;2023-02-17T00:36:26;94924.44;;;6.22;100.00
39739;BME280;25422;48.286;8.484;2023-02-17T00:38:53;94922.34;;;6.16;100.00
39739;BME280;25422;48.286;8.484;2023-02-17T00:41:20;94923.84;;;6.30;100.00
39739;BME280;25422;48.286;8.484;2023-02-17T00:43:46;94930.03;;;6.38;100.00
39739;BME280;25422;48.286;8.484;2023-02-17T00:46:14;94925.38;;;6.32;100.00
39739;BME280;25422;48.286;8.484;2023-02-17T00:48:40;94924.59;;;6.41;100.00
39739;BME280;25422;48.286;8.484;2023-02-17T00:51:06;94926.38;;;6.41;100.00
39739;BME280;25422;48.286;8.484;2023-02-17T00:53:33;94928.16;;;6.40;100.00
39739;BME280;25422;48.286;8.484;2023-02-17T00:55:58;94925.09;;;6.35;100.00
39739;BME280;25422;48.286;8.484;2023-02-17T00:58:24;94922.78;;;6.32;100.00
39739;BME280;25422;48.286;8.484;2023-02-17T01:00:50;94927.97;;;6.32;100.00
39739;BME280;25422;48.286;8.484;2023-02-17T01:03:17;94929.59;;;6.33;100.00
39739;BME280;25422;48.286;8.484;2023-02-17T01:05:47;94923.72;;;6.31;100.00
39739;BME280;25422;48.286;8.484;2023-02-17T01:08:14;94922.31;;;6.27;100.00
39739;BME280;25422;48.286;8.484;2023-02-17T01:10:41;94922.56;;;6.24;100.00
39739;BME280;25422;48.286;8.484;2023-02-17T01:13:07;94921.69;;;6.35;100.00
39739;BME280;25422;48.286;8.484;2023-02-17T01:15:38;94921.78;;;6.33;100.00
39739;BME280;25422;48.286;8.484;2023-02-17T01:18:03;94915.78;;;6.33;100.00
39739;BME280;25422;48.286;8.484;2023-02-17T01:20:29;94920.16;;;6.32;100.00
39739;BME280;25422;48.286;8.484;2023-02-17T01:22:54;94921.25;;;6.30;100.00
39739;BME280;25422;48.286;8.484;2023-02-17T01:25:20;94914.88;;;6.22;100.00
39739;BME280;25422;48.286;8.484;2023-02-17T01:27:45;94915.34;;;6.28;100.00
39739;BME280;25422;48.286;8.484;2023-02-17T01:30:12;94918.63;;;6.30;100.00
39739;BME280;25422;48.286;8.484;2023-02-17T01:32:37;94918.19;;;6.24;100.00
39739;BME280;25422;48.286;8.484;2023-02-17T01:35:03;94912.19;;;6.24;100.00
39739;BME280;25422;48.286;8.484;2023-02-17T01:37:34;94915.38;;;6.16;100.00
39739;BME280;25422;48.286;8.484;2023-02-17T01:39:59;94922.13;;;6.07;100.00
39739;BME280;25422;48.286;8.484;2023-02-17T01:42:25;94922.41;;;5.93;100.00
39739;BME280;25422;48.286;8.484;2023-02-17T01:45:33;94910.34;;;5.92;100.00
39739;BME280;25422;48.286;8.484;2023-02-17T01:48:03;94911.16;;;5.93;100.00
39739;BME280;25422;48.286;8.484;2023-02-17T01:50:34;94907.81;;;5.81;100.00
39739;BME280;25422;48.286;8.484;2023-02-17T01:53:01;94909.44;;;5.82;100.00
39739;BME280;25422;48.286;8.484;2023-02-17T01:55:28;94910.63;;;5.89;100.00
39739;BME280;25422;48.286;8.484;2023-02-17T01:57:57;94909.91;;;5.87;100.00
39739;BME280;25422;48.286;8.484;2023-02-17T02:00:25;94906.94;;;5.91;100.00
39739;BME280;25422;48.286;8.484;2023-02-17T02:02:52;94907.19;;;6.00;100.00
39739;BME280;25422;48.286;8.484;2023-02-17T02:05:18;94906.22;;;6.01;100.00
39739;BME280;25422;48.286;8.484;2023-02-17T02:07:46;94895.81;;;6.01;100.00
39739;BME280;25422;48.286;8.484;2023-02-17T02:10:13;94904.22;;;5.93;100.00
39739;BME280;25422;48.286;8.484;2023-02-17T02:12:40;94900.91;;;5.91;100.00
39739;BME280;25422;48.286;8.484;2023-02-17T02:15:10;94899.63;;;5.85;100.00
39739;BME280;25422;48.286;8.484;2023-02-17T02:34:07;94885.47;;;5.89;100.00
39739;BME280;25422;48.286;8.484;2023-02-17T02:36:38;94881.78;;;5.92;100.00
39739;BME280;25422;48.286;8.484;2023-02-17T02:39:10;94874.25;;;5.89;100.00
39739;BME280;25422;48.286;8.484;2023-02-17T02:41:53;94875.88;;;5.90;100.00
39739;BME280;25422;48.286;8.484;2023-02-17T02:44:21;94886.41;;;5.88;100.00
39739;BME280;25422;48.286;8.484;2023-02-17T02:47:03;94891.03;;;5.85;100.00
39739;BME280;25422;48.286;8.484;2023-02-17T02:49:30;94880.66;;;5.73;100.00
39739;BME280;25422;48.286;8.484;2023-02-17T02:57:23;94877.81;;;5.44;100.00
39739;BME280;25422;48.286;8.484;2023-02-17T03:00:05;94876.13;;;5.43;100.00
39739;BME280;25422;48.286;8.484;2023-02-17T03:02:50;94871.19;;;5.29;100.00
39739;BME280;25422;48.286;8.484;2023-02-17T03:05:50;94873.78;;;5.29;100.00
39739;BME280;25422;48.286;8.484;2023-02-17T03:10:50;94880.78;;;5.17;100.00
39739;BME280;25422;48.286;8.484;2023-02-17T03:13:17;94871.81;;;5.21;100.00
39739;BME280;25422;48.286;8.484;2023-02-17T03:15:43;94863.06;;;5.22;100.00
39739;BME280;25422;48.286;8.484;2023-02-17T03:18:09;94863.06;;;5.22;100.00
39739;BME280;25422;48.286;8.484;2023-02-17T03:20:38;94862.63;;;5.17;100.00
39739;BME280;25422;48.286;8.484;2023-02-17T03:23:07;94867.09;;;5.15;100.00
39739;BME280;25422;48.286;8.484;2023-02-17T03:25:32;94866.16;;;5.16;100.00
39739;BME280;25422;48.286;8.484;2023-02-17T03:27:58;94862.63;;;5.05;100.00
39739;BME280;25422;48.286;8.484;2023-02-17T03:30:24;94863.56;;;4.93;100.00
39739;BME280;25422;48.286;8.484;2023-02-17T03:32:49;94869.81;;;5.02;100.00
39739;BME280;25422;48.286;8.484;2023-02-17T03:35:15;94854.38;;;5.12;100.00
39739;BME280;25422;48.286;8.484;2023-02-17T03:37:40;94857.06;;;5.21;100.00
39739;BME280;25422;48.286;8.484;2023-02-17T03:40:06;94857.63;;;5.36;100.00
39739;BME280;25422;48.286;8.484;2023-02-17T03:42:33;94852.91;;;5.42;100.00
39739;BME280;25422;48.286;8.484;2023-02-17T03:44:58;94847.22;;;5.48;100.00
39739;BME280;25422;48.286;8.484;2023-02-17T03:47:24;94849.09;;;5.57;100.00
39739;BME280;25422;48.286;8.484;2023-02-17T03:49:50;94850.88;;;5.56;100.00
39739;BME280;25422;48.286;8.484;2023-02-17T03:52:16;94853.59;;;5.55;100.00
39739;BME280;25422;48.286;8.484;2023-02-17T03:54:42;94851.38;;;5.39;100.00
39739;BME280;25422;48.286;8.484;2023-02-17T03:57:07;94854.69;;;5.30;100.00
39739;BME280;25422;48.286;8.484;2023-02-17T03:59:33;94849.19;;;5.12;100.00
39739;BME280;25422;48.286;8.484;2023-02-17T04:01:58;94854.34;;;5.00;100.00
39739;BME280;25422;48.286;8.484;2023-02-17T04:04:24;94846.13;;;4.95;100.00
39739;BME280;25422;48.286;8.484;2023-02-17T04:06:49;94846.59;;;4.89;100.00
39739;BME280;25422;48.286;8.484;2023-02-17T04:09:15;94841.16;;;4.92;100.00
39739;BME280;25422;48.286;8.484;2023-02-17T04:11:41;94845.53;;;4.92;100.00
39739;BME280;25422;48.286;8.484;2023-02-17T04:14:06;94848.00;;;4.93;100.00
39739;BME280;25422;48.286;8.484;2023-02-17T04:16:31;94853.19;;;4.93;100.00
39739;BME280;25422;48.286;8.484;2023-02-17T04:18:57;94842.94;;;4.92;100.00
39739;BME280;25422;48.286;8.484;2023-02-17T04:21:22;94846.69;;;4.99;100.00
39739;BME280;25422;48.286;8.484;2023-02-17T04:23:48;94849.53;;;5.07;100.00
39739;BME280;25422;48.286;8.484;2023-02-17T04:26:13;94848.69;;;5.18;100.00
39739;BME280;25422;48.286;8.484;2023-02-17T04:28:40;94854.34;;;5.23;100.00
39739;BME280;25422;48.286;8.484;2023-02-17T04:31:06;94854.44;;;5.33;100.00
39739;BME280;25422;48.286;8.484;2023-02-17T04:33:32;94858.31;;;5.38;100.00
39739;BME280;25422;48.286;8.484;2023-02-17T04:35:58;94857.16;;;5.43;100.00
39739;BME280;25422;48.286;8.484;2023-02-17T04:38:28;94864.09;;;5.42;100.00
39739;BME280;25422;48.286;8.484;2023-02-17T04:40:55;94865.72;;;5.54;100.00
39739;BME280;25422;48.286;8.484;2023-02-17T04:43:21;94857.81;;;5.67;100.00
39739;BME280;25422;48.286;8.484;2023-02-17T04:45:47;94856.72;;;5.70;100.00
39739;BME280;25422;48.286;8.484;2023-02-17T04:48:12;94858.88;;;5.65;100.00
39739;BME280;25422;48.286;8.484;2023-02-17T04:50:38;94865.94;;;5.63;100.00
39739;BME280;25422;48.286;8.484;2023-02-17T04:53:03;94867.00;;;5.71;100.00
39739;BME280;25422;48.286;8.484;2023-02-17T04:55:29;94863.19;;;5.76;100.00
39739;BME280;25422;48.286;8.484;2023-02-17T04:57:55;94857.00;;;5.88;100.00
39739;BME280;25422;48.286;8.484;2023-02-17T05:00:20;94858.88;;;5.97;100.00
39739;BME280;25422;48.286;8.484;2023-02-17T05:02:46;94858.53;;;6.02;100.00
39739;BME280;25422;48.286;8.484;2023-02-17T05:05:11;94856.75;;;6.02;100.00
39739;BME280;25422;48.286;8.484;2023-02-17T05:07:41;94854.97;;;6.03;100.00
39739;BME280;25422;48.286;8.484;2023-02-17T05:10:06;94856.41;;;5.96;100.00
39739;BME280;25422;48.286;8.484;2023-02-17T05:12:32;94848.75;;;5.94;100.00
39739;BME280;25422;48.286;8.484;2023-02-17T05:14:57;94854.59;;;6.07;100.00
39739;BME280;25422;48.286;8.484;2023-02-17T05:17:23;94852.44;;;6.13;100.00
39739;BME280;25422;48.286;8.484;2023-02-17T05:19:48;94851.25;;;6.17;100.00
39739;BME280;25422;48.286;8.484;2023-02-17T05:22:13;94845.09;;;6.18;100.00
39739;BME280;25422;48.286;8.484;2023-02-17T05:24:39;94851.91;;;6.09;100.00
39739;BME280;25422;48.286;8.484;2023-02-17T05:27:04;94849.97;;;6.11;100.00
39739;BME280;25422;48.286;8.484;2023-02-17T05:29:30;94856.25;;;6.08;100.00
39739;BME280;25422;48.286;8.484;2023-02-17T05:31:55;94854.97;;;6.03;100.00
39739;BME280;25422;48.286;8.484;2023-02-17T05:34:20;94855.69;;;5.94;100.00
39739;BME280;25422;48.286;8.484;2023-02-17T05:36:46;94849.59;;;5.83;100.00
39739;BME280;25422;48.286;8.484;2023-02-17T05:39:11;94844.03;;;5.88;100.00
39739;BME280;25422;48.286;8.484;2023-02-17T05:41:37;94841.34;;;5.78;100.00
39739;BME280;25422;48.286;8.484;2023-02-17T05:44:02;94838.75;;;5.78;100.00
39739;BME280;25422;48.286;8.484;2023-02-17T05:46:28;94838.19;;;5.74;100.00
39739;BME280;25422;48.286;8.484;2023-02-17T05:48:53;94834.63;;;5.76;100.00
39739;BME280;25422;48.286;8.484;2023-02-17T05:51:18;94840.28;;;5.81;100.00
39739;BME280;25422;48.286;8.484;2023-02-17T05:53:44;94844.63;;;5.91;100.00
39739;BME280;25422;48.286;8.484;2023-02-17T05:56:09;94845.03;;;5.97;100.00
39739;BME280;25422;48.286;8.484;2023-02-17T05:58:35;94857.56;;;6.03;100.00
39739;BME280;25422;48.286;8.484;2023-02-17T06:01:00;94845.09;;;6.18;100.00
39739;BME280;25422;48.286;8.484;2023-02-17T06:03:25;94856.19;;;6.41;100.00
39739;BME280;25422;48.286;8.484;2023-02-17T06:05:51;94852.91;;;6.39;100.00
39739;BME280;25422;48.286;8.484;2023-02-17T06:08:16;94860.25;;;6.34;100.00
39739;BME280;25422;48.286;8.484;2023-02-17T06:10:42;94858.75;;;6.31;100.00
39739;BME280;25422;48.286;8.484;2023-02-17T06:13:07;94861.69;;;6.27;100.00
39739;BME280;25422;48.286;8.484;2023-02-17T06:15:32;94862.22;;;6.41;100.00
39739;BME280;25422;48.286;8.484;2023-02-17T06:17:58;94863.50;;;6.47;100.00
39739;BME280;25422;48.286;8.484;2023-02-17T06:20:24;94865.84;;;6.50;100.00
39739;BME280;25422;48.286;8.484;2023-02-17T06:22:49;94854.31;;;6.43;100.00
39739;BME280;25422;48.286;8.484;2023-02-17T06:25:15;94858.22;;;6.37;100.00
39739;BME280;25422;48.286;8.484;2023-02-17T06:27:40;94858.34;;;6.36;100.00
39739;BME280;25422;48.286;8.484;2023-02-17T06:30:09;94868.38;;;6.40;100.00
39739;BME280;25422;48.286;8.484;2023-02-17T06:32:34;94870.13;;;6.40;100.00
39739;BME280;25422;48.286;8.484;2023-02-17T06:35:00;94875.16;;;6.32;100.00
39739;BME280;25422;48.286;8.484;2023-02-17T06:37:25;94877.25;;;6.38;100.00
39739;BME280;25422;48.286;8.484;2023-02-17T06:39:51;94871.53;;;6.44;100.00
39739;BME280;25422;48.286;8.484;2023-02-17T06:42:16;94873.94;;;6.57;100.00
39739;BME280;25422;48.286;8.484;2023-02-17T06:44:41;94884.28;;;6.68;100.00
39739;BME280;25422;48.286;8.484;2023-02-17T06:47:07;94882.38;;;6.70;100.00
39739;BME280;25422;48.286;8.484;2023-02-17T06:49:32;94884.28;;;6.68;100.00
39739;BME280;25422;48.286;8.484;2023-02-17T06:51:58;94881.53;;;6.70;100.00
39739;BME280;25422;48.286;8.484;2023-02-17T06:54:23;94886.75;;;6.70;100.00
39739;BME280;25422;48.286;8.484;2023-02-17T06:56:48;94891.00;;;6.71;100.00
39739;BME280;25422;48.286;8.484;2023-02-17T06:59:14;94899.09;;;6.56;100.00
39739;BME280;25422;48.286;8.484;2023-02-17T07:01:39;94906.03;;;6.46;100.00
39739;BME280;25422;48.286;8.484;2023-02-17T07:04:05;94902.66;;;6.34;100.00
39739;BME280;25422;48.286;8.484;2023-02-17T07:06:30;94902.47;;;6.26;100.00
39739;BME280;25422;48.286;8.484;2023-02-17T07:08:56;94901.78;;;6.24;100.00
39739;BME280;25422;48.286;8.484;2023-02-17T07:11:22;94904.72;;;6.19;100.00
39739;BME280;25422;48.286;8.484;2023-02-17T07:13:48;94906.00;;;6.25;100.00
39739;BME280;25422;48.286;8.484;2023-02-17T07:16:14;94900.91;;;6.35;100.00
39739;BME280;25422;48.286;8.484;2023-02-17T07:18:40;94906.34;;;6.32;100.00
39739;BME280;25422;48.286;8.484;2023-02-17T07:21:07;94913.56;;;6.28;100.00
39739;BME280;25422;48.286;8.484;2023-02-17T07:23:34;94906.00;;;6.25;100.00
39739;BME280;25422;48.286;8.484;2023-02-17T07:26:07;94918.25;;;6.34;100.00
39739;BME280;25422;48.286;8.484;2023-02-17T07:28:34;94916.59;;;6.33;100.00
39739;BME280;25422;48.286;8.484;2023-02-17T07:31:25;94902.59;;;6.46;100.00
39739;BME280;25422;48.286;8.484;2023-02-17T07:33:51;94916.22;;;6.59;100.00
39739;BME280;25422;48.286;8.484;2023-02-17T07:36:17;94917.22;;;6.58;100.00
39739;BME280;25422;48.286;8.484;2023-02-17T07:38:42;94918.22;;;6.67;100.00
39739;BME280;25422;48.286;8.484;2023-02-17T07:41:14;94925.63;;;6.71;100.00
39739;BME280;25422;48.286;8.484;2023-02-17T07:43:40;94930.13;;;6.69;100.00
39739;BME280;25422;48.286;8.484;2023-02-17T07:46:08;94928.75;;;6.65;100.00
39739;BME280;25422;48.286;8.484;2023-02-17T07:48:33;94937.34;;;6.66;100.00
39739;BME280;25422;48.286;8.484;2023-02-17T07:51:10;94947.00;;;6.75;100.00
39739;BME280;25422;48.286;8.484;2023-02-17T07:53:36;94951.38;;;6.74;100.00
39739;BME280;25422;48.286;8.484;2023-02-17T07:56:03;94950.03;;;6.80;100.00
39739;BME280;25422;48.286;8.484;2023-02-17T07:58:31;94945.28;;;6.85;100.00
39739;BME280;25422;48.286;8.484;2023-02-17T08:00:56;94947.75;;;6.87;100.00
39739;BME280;25422;48.286;8.484;2023-02-17T08:03:22;94951.50;;;6.94;100.00
39739;BME280;25422;48.286;8.484;2023-02-17T08:05:47;94936.50;;;7.07;100.00
39739;BME280;25422;48.286;8.484;2023-02-17T08:08:15;94942.91;;;7.03;100.00
39739;BME280;25422;48.286;8.484;2023-02-17T08:11:00;94950.09;;;7.11;100.00
39739;BME280;25422;48.286;8.484;2023-02-17T08:13:44;94944.88;;;7.11;100.00
39739;BME280;25422;48.286;8.484;2023-02-17T08:16:09;94941.22;;;7.14;100.00
39739;BME280;25422;48.286;8.484;2023-02-17T08:18:35;94949.00;;;7.14;100.00
39739;BME280;25422;48.286;8.484;2023-02-17T08:21:00;94957.38;;;7.17;100.00
39739;BME280;25422;48.286;8.484;2023-02-17T08:23:26;94953.00;;;7.18;100.00
39739;BME280;25422;48.286;8.484;2023-02-17T08:25:51;94963.41;;;7.18;100.00
39739;BME280;25422;48.286;8.484;2023-02-17T08:28:17;94960.97;;;7.26;100.00
39739;BME280;25422;48.286;8.484;2023-02-17T08:30:42;94958.13;;;7.29;100.00
39739;BME280;25422;48.286;8.484;2023-02-17T08:33:08;94962.81;;;7.35;100.00
39739;BME280;25422;48.286;8.484;2023-02-17T08:35:33;94957.59;;;7.35;100.00
39739;BME280;25422;48.286;8.484;2023-02-17T08:37:58;94960.88;;;7.37;100.00
39739;BME280;25422;48.286;8.484;2023-02-17T08:40:24;94959.41;;;7.45;100.00
39739;BME280;25422;48.286;8.484;2023-02-17T08:42:49;94960.78;;;7.49;100.00
39739;BME280;25422;48.286;8.484;2023-02-17T08:45:15;94963.59;;;7.57;100.00
39739;BME280;25422;48.286;8.484;2023-02-17T08:47:41;94970.06;;;7.72;100.00
39739;BME280;25422;48.286;8.484;2023-02-17T08:50:08;94968.84;;;7.76;100.00
39739;BME280;25422;48.286;8.484;2023-02-17T08:52:35;94971.59;;;7.85;100.00
39739;BME280;25422;48.286;8.484;2023-02-17T08:55:00;94971.47;;;7.86;100.00
39739;BME280;25422;48.286;8.484;2023-02-17T08:57:26;94976.97;;;7.93;100.00
39739;BME280;25422;48.286;8.484;2023-02-17T08:59:52;94973.41;;;7.94;100.00
39739;BME280;25422;48.286;8.484;2023-02-17T09:02:18;94968.22;;;7.94;100.00
39739;BME280;25422;48.286;8.484;2023-02-17T09:04:44;94984.00;;;8.02;100.00
39739;BME280;25422;48.286;8.484;2023-02-17T09:07:12;94980.72;;;8.10;100.00
39739;BME280;25422;48.286;8.484;2023-02-17T09:09:39;94979.63;;;8.13;100.00
39739;BME280;25422;48.286;8.484;2023-02-17T09:12:04;94986.63;;;8.12;100.00
39739;BME280;25422;48.286;8.484;2023-02-17T09:14:30;94978.50;;;8.15;100.00
39739;BME280;25422;48.286;8.484;2023-02-17T09:16:56;94993.34;;;8.15;100.00
39739;BME280;25422;48.286;8.484;2023-02-17T09:19:22;94991.41;;;8.07;100.00
39739;BME280;25422;48.286;8.484;2023-02-17T09:21:47;95007.31;;;8.04;100.00
39739;BME280;25422;48.286;8.484;2023-02-17T09:24:13;94997.44;;;8.07;100.00
39739;BME280;25422;48.286;8.484;2023-02-17T09:26:39;94995.50;;;8.00;100.00
39739;BME280;25422;48.286;8.484;2023-02-17T09:29:05;95000.16;;;7.96;100.00
39739;BME280;25422;48.286;8.484;2023-02-17T09:31:32;95000.00;;;7.88;100.00
39739;BME280;25422;48.286;8.484;2023-02-17T09:33:58;95001.22;;;7.84;100.00
39739;BME280;25422;48.286;8.484;2023-02-17T09:36:26;95008.09;;;7.85;100.00
39739;BME280;25422;48.286;8.484;2023-02-17T09:38:53;95004.78;;;7.83;100.00
39739;BME280;25422;48.286;8.484;2023-02-17T09:41:33;95004.09;;;7.81;100.00
39739;BME280;25422;48.286;8.484;2023-02-17T09:44:04;95006.97;;;7.78;100.00
39739;BME280;25422;48.286;8.484;2023-02-17T09:46:40;95007.66;;;7.80;100.00
39739;BME280;25422;48.286;8.484;2023-02-17T09:49:15;95007.28;;;7.94;100.00
39739;BME280;25422;48.286;8.484;2023-02-17T09:51:42;95002.34;;;7.91;100.00
39739;BME280;25422;48.286;8.484;2023-02-17T09:56:40;95004.44;;;8.07;100.00
39739;BME280;25422;48.286;8.484;2023-02-17T09:59:13;94999.66;;;8.12;100.00
39739;BME280;25422;48.286;8.484;2023-02-17T10:01:41;94999.78;;;8.20;100.00
39739;BME280;25422;48.286;8.484;2023-02-17T10:04:11;95003.09;;;8.13;100.00
39739;BME280;25422;48.286;8.484;2023-02-17T10:06:45;95011.72;;;8.13;100.00
39739;BME280;25422;48.286;8.484;2023-02-17T10:09:21;95010.63;;;8.06;100.00
39739;BME280;25422;48.286;8.484;2023-02-17T10:12:03;95019.41;;;8.15;100.00
39739;BME280;25422;48.286;8.484;2023-02-17T10:14:39;95012.59;;;8.23;100.00
39739;BME280;25422;48.286;8.484;2023-02-17T10:17:23;95016.00;;;8.24;100.00
39739;BME280;25422;48.286;8.484;2023-02-17T10:20:02;95013.66;;;8.21;100.00
39739;BME280;25422;48.286;8.484;2023-02-17T10:22:29;95017.38;;;8.28;100.00
39739;BME280;25422;48.286;8.484;2023-02-17T10:24:56;95012.59;;;8.33;100.00
39739;BME280;25422;48.286;8.484;2023-02-17T10:30:26;95020.41;;;8.23;100.00
39739;BME280;25422;48.286;8.484;2023-02-17T10:35:51;95034.63;;;8.09;100.00
39739;BME280;25422;48.286;8.484;2023-02-17T10:40:53;95033.38;;;8.04;100.00
39739;BME280;25422;48.286;8.484;2023-02-17T10:43:23;95022.56;;;8.08;100.00
39739;BME280;25422;48.286;8.484;2023-02-17T10:45:51;95035.03;;;8.05;100.00
39739;BME280;25422;48.286;8.484;2023-02-17T10:48:23;95027.59;;;8.00;100.00
39739;BME280;25422;48.286;8.484;2023-02-17T10:50:53;95031.03;;;8.01;100.00
39739;BME280;25422;48.286;8.484;2023-02-17T10:53:29;95040.53;;;8.12;100.00
39739;BME280;25422;48.286;8.484;2023-02-17T10:56:03;95032.84;;;8.10;100.00
39739;BME280;25422;48.286;8.484;2023-02-17T11:01:23;95041.34;;;8.12;100.00
39739;BME280;25422;48.286;8.484;2023-02-17T11:04:05;95037.22;;;8.09;100.00
39739;BME280;25422;48.286;8.484;2023-02-17T11:06:31;95032.44;;;8.15;100.00
39739;BME280;25422;48.286;8.484;2023-02-17T11:09:04;95021.59;;;8.09;100.00
39739;BME280;25422;48.286;8.484;2023-02-17T11:11:31;95011.22;;;8.29;100.00
39739;BME280;25422;48.286;8.484;2023-02-17T11:16:38;94998.44;;;9.14;100.00
39739;BME280;25422;48.286;8.484;2023-02-17T11:19:06;94994.38;;;9.49;100.00
39739;BME280;25422;48.286;8.484;2023-02-17T11:21:42;94989.56;;;10.10;100.00
39739;BME280;25422;48.286;8.484;2023-02-17T11:24:11;94981.28;;;10.42;100.00
39739;BME280;25422;48.286;8.484;2023-02-17T11:26:37;94982.69;;;10.55;100.00
39739;BME280;25422;48.286;8.484;2023-02-17T11:29:21;94978.25;;;10.91;100.00
39739;BME280;25422;48.286;8.484;2023-02-17T11:31:56;94971.19;;;10.66;100.00
39739;BME280;25422;48.286;8.484;2023-02-17T11:34:24;94981.19;;;10.88;100.00
39739;BME280;25422;48.286;8.484;2023-02-17T11:37:00;94974.91;;;10.81;100.00
39739;BME280;25422;48.286;8.484;2023-02-17T11:39:26;94979.88;;;11.10;100.00
39739;BME280;25422;48.286;8.484;2023-02-17T11:41:51;94993.81;;;11.37;100.00
39739;BME280;25422;48.286;8.484;2023-02-17T11:44:27;94977.91;;;10.68;100.00
39739;BME280;25422;48.286;8.484;2023-02-17T11:52:45;94981.00;;;10.18;100.00
39739;BME280;25422;48.286;8.484;2023-02-17T11:55:19;94980.97;;;10.45;100.00
39739;BME280;25422;48.286;8.484;2023-02-17T11:58:07;94984.09;;;10.67;100.00
39739;BME280;25422;48.286;8.484;2023-02-17T12:01:19;94974.22;;;10.97;100.00
39739;BME280;25422;48.286;8.484;2023-02-17T12:06:55;94981.69;;;11.36;100.00
39739;BME280;25422;48.286;8.484;2023-02-17T12:15:00;94982.16;;;11.32;100.00
39739;BME280;25422;48.286;8.484;2023-02-17T12:17:51;94977.25;;;11.10;100.00
39739;BME280;25422;48.286;8.484;2023-02-17T12:20:40;94980.19;;;11.07;100.00
39739;BME280;25422;48.286;8.484;2023-02-17T12:23:51;94984.94;;;10.86;100.00
39739;BME280;25422;48.286;8.484;2023-02-17T12:26:44;94990.22;;;10.94;100.00
39739;BME280;25422;48.286;8.484;2023-02-17T12:29:28;94990.16;;;11.30;100.00
39739;BME280;25422;48.286;8.484;2023-02-17T12:32:19;94992.31;;;11.08;100.00
39739;BME280;25422;48.286;8.484;2023-02-17T12:34:57;94992.78;;;11.56;100.00
39739;BME280;25422;48.286;8.484;2023-02-17T12:37:32;94993.53;;;10.96;100.00
39739;BME280;25422;48.286;8.484;2023-02-17T12:40:05;94988.69;;;10.65;100.00
39739;BME280;25422;48.286;8.484;2023-02-17T12:42:39;94988.00;;;10.63;100.00
39739;BME280;25422;48.286;8.484;2023-02-17T12:45:34;94987.69;;;10.66;100.00
39739;BME280;25422;48.286;8.484;2023-02-17T12:48:15;94985.53;;;10.61;100.00
39739;BME280;25422;48.286;8.484;2023-02-17T12:50:58;95007.22;;;10.08;100.00
39739;BME280;25422;48.286;8.484;2023-02-17T12:53:53;94998.88;;;9.94;100.00
39739;BME280;25422;48.286;8.484;2023-02-17T12:58:58;94993.47;;;9.68;100.00
39739;BME280;25422;48.286;8.484;2023-02-17T13:01:30;94992.16;;;9.54;100.00
39739;BME280;25422;48.286;8.484;2023-02-17T13:03:58;94989.84;;;9.51;100.00
39739;BME280;25422;48.286;8.484;2023-02-17T13:06:33;94982.53;;;9.55;100.00
39739;BME280;25422;48.286;8.484;2023-02-17T13:12:09;94986.78;;;9.56;100.00
39739;BME280;25422;48.286;8.484;2023-02-17T13:14:47;94983.50;;;9.54;100.00
39739;BME280;25422;48.286;8.484;2023-02-17T13:17:39;94987.09;;;9.53;100.00
39739;BME280;25422;48.286;8.484;2023-02-17T13:22:42;94982.66;;;9.63;100.00
39739;BME280;25422;48.286;8.484;2023-02-17T13:25:24;94982.78;;;9.61;100.00
39739;BME280;25422;48.286;8.484;2023-02-17T13:27:50;94980.56;;;9.67;100.00
39739;BME280;25422;48.286;8.484;2023-02-17T13:32:41;94975.56;;;9.45;100.00
39739;BME280;25422;48.286;8.484;2023-02-17T13:37:53;94980.56;;;9.67;100.00
39739;BME280;25422;48.286;8.484;2023-02-17T13:42:45;94978.44;;;9.42;100.00
39739;BME280;25422;48.286;8.484;2023-02-17T13:45:33;94976.94;;;9.40;100.00
39739;BME280;25422;48.286;8.484;2023-02-17T13:48:11;94977.94;;;9.39;100.00
39739;BME280;25422;48.286;8.484;2023-02-17T13:50:51;94974.59;;;9.47;100.00
39739;BME280;25422;48.286;8.484;2023-02-17T13:53:25;94973.22;;;9.42;100.00
39739;BME280;25422;48.286;8.484;2023-02-17T13:55:52;94965.38;;;9.42;100.00
39739;BME280;25422;48.286;8.484;2023-02-17T13:58:22;94966.63;;;9.38;100.00
39739;BME280;25422;48.286;8.484;2023-02-17T14:00:48;94967.22;;;9.32;100.00
39739;BME280;25422;48.286;8.484;2023-02-17T14:03:23;94962.56;;;9.26;100.00
39739;BME280;25422;48.286;8.484;2023-02-17T14:05:52;94962.66;;;9.34;100.00
39739;BME280;25422;48.286;8.484;2023-02-17T14:08:39;94964.28;;;9.45;100.00
39739;BME280;25422;48.286;8.484;2023-02-17T14:11:17;94962.78;;;9.42;100.00
39739;BME280;25422;48.286;8.484;2023-02-17T14:13:49;94960.25;;;9.60;100.00
39739;BME280;25422;48.286;8.484;2023-02-17T14:18:47;94967.09;;;9.71;100.00
39739;BME280;25422;48.286;8.484;2023-02-17T14:21:25;94964.63;;;9.60;100.00
39739;BME280;25422;48.286;8.484;2023-02-17T14:23:54;94972.78;;;9.57;100.00
39739;BME280;25422;48.286;8.484;2023-02-17T14:26:41;94968.22;;;9.59;100.00